Flight Track Log - Related Links

Times and Time Zones

All times are in EDT time to prevent confusion due to time zone crossing. See the RPA3321 flight status page for this flight to view local times or setup timezone preferences in your user account.

Time Position Orientation Groundspeed Altitude Reporting Facility
EDT Latitude Longitude Course Direction KTS MPH feet Rate Location/Type
Sat 06:00:42 AM 42.7631 -73.8089 117° Southeast 134 154 1,300  Level Boston Center
Sat 06:01:48 AM 42.8064 -73.8578 320° Northwest 221 254 3,600 2,585 Climbing Boston Center
Sat 06:02:52 AM 42.8511 -73.9411 306° West 267 307 6,900 3,242 Climbing Boston Center
Sat 06:03:00 AM 42.3577 -74.1483 170° South  Level Estimated
Sat 06:03:52 AM 42.8689 -74.0181 288° West 262 302 10,300  Level Boston Center
Sat 06:04:00 AM 42.2598 -74.2342 169° South  Level Estimated
Sat 06:04:52 AM 42.8567 -74.1394 262° West 285 328 13,200  Level Boston Center
Sat 06:05:00 AM 42.2059 -74.0943 117° Southeast  Level FlightAware
Sat 06:05:52 AM 42.7872 -74.1772 202° Southwest 273 314 15,600  Level Boston Center
Sat 06:06:52 AM 42.6881 -74.1236 158° South 279 321 17,800 2,050 Climbing Boston Center
Sat 06:07:52 AM 42.6011 -74.0789 159° South 339 390 19,700 1,950 Climbing Boston Center
Sat 06:08:52 AM 42.5186 -74.0289 156° South 360 414 21,700 2,200 Climbing Boston Center
Sat 06:09:52 AM 42.3944 -73.9611 158° South 385 443 24,100 2,150 Climbing Boston Center
Sat 06:10:52 AM 42.2931 -73.8997 156° South 392 451 26,000 950 Climbing Boston Center
Sat 06:11:52 AM 42.1894 -73.8439 158° South 397 457 26,000  Level Boston Center
Sat 06:12:52 AM 42.0944 -73.7886 157° South 402 463 26,000 350 Level Boston Center
Sat 06:13:52 AM 41.9842 -73.7528 166° South 408 470 26,700 950 Climbing Boston Center
Sat 06:14:52 AM 41.8906 -73.7592 183° South 407 468 27,900 402 Climbing Boston Center
Sat 06:17:06 AM 41.6128 -73.7733 182° South 414 476 28,000 31 Climbing New Center
Sat 06:18:06 AM 41.4878 -73.7786 182° South 419 482 28,000  Level New Center
Sat 06:19:06 AM 41.3711 -73.7844 182° South 425 489 28,000  Level New Center
Sat 06:20:04 AM 41.2561 -73.7931 183° South 425 489 28,000  Level New Center
Sat 06:21:05 AM 41.1450 -73.8267 193° South 419 482 28,000  Level New Center
Sat 06:22:05 AM 41.0714 -73.9333 228° Southwest 382 440 28,000  Level New Center
Sat 06:23:06 AM 41.0058 -74.0431 232° Southwest 382 440 28,000  Level New Center
Sat 06:24:04 AM 40.9422 -74.1581 234° Southwest 387 445 28,000  Level New Center
Sat 06:25:04 AM 40.8725 -74.2617 228° Southwest 392 451 28,000  Level New Center
Sat 06:26:04 AM 40.8067 -74.3708 231° Southwest 392 451 28,000  Level New Center
Sat 06:27:04 AM 40.7475 -74.4717 232° Southwest 387 445 28,000  Level New Center
Sat 06:28:05 AM 40.6814 -74.5803 231° Southwest 387 445 28,000  Level New Center
Sat 06:29:05 AM 40.6175 -74.6861 232° Southwest 387 445 28,000  Level New Center
Sat 06:30:04 AM 40.5472 -74.7967 230° Southwest 387 445 28,000  Level New Center
Sat 06:31:06 AM 40.4750 -74.8961 226° Southwest 387 445 28,000  Level New Center
Sat 06:32:04 AM 40.4025 -75.0008 228° Southwest 387 445 28,000 -407 Level New Center
Sat 06:33:04 AM 40.3300 -75.1025 227° Southwest 387 445 27,200 -1,388 Descending New Center
Sat 06:34:05 AM 40.2597 -75.2017 227° Southwest 387 445 25,200 -1,934 Descending New Center
Sat 06:35:05 AM 40.1911 -75.3006 228° Southwest 382 440 23,300 -1,587 Descending New Center
Sat 06:36:06 AM 40.1208 -75.3964 226° Southwest 382 440 22,000 -655 Descending New Center
Sat 06:37:04 AM 40.0525 -75.4922 227° Southwest 377 434 22,000  Level New Center
Sat 06:38:05 AM 39.9842 -75.5822 225° Southwest 366 421 22,000 -397 Level New Center
Sat 06:39:05 AM 39.9197 -75.6808 230° Southwest 366 421 21,200 -893 Descending New Center
Sat 06:40:06 AM 39.8528 -75.7789 228° Southwest 366 421 20,200 -1,008 Descending New Center
Sat 06:41:04 AM 39.7925 -75.8772 231° Southwest 366 421 19,200 -1,008 Descending New Center
Sat 06:42:05 AM 39.7319 -75.9756 231° Southwest 361 415 18,200 -738 Descending New Center
Sat 06:43:06 AM 39.6714 -76.0708 230° Southwest 361 415 17,700 -1,593 Descending New Center
Sat 06:43:58 AM 39.6000 -76.1667 226° Southwest 343 395 15,200 -1,474 Descending Potomac TRACON
Sat 06:45:00 AM 39.5786 -76.3038 212° Southwest  Level FlightAware
Sat 06:46:58 AM 39.4333 -76.4333 224° Southwest 327 376 12,000  Level Potomac TRACON
Sat 06:47:58 AM 39.3500 -76.5000 212° Southwest 323 372 12,000  Level Potomac TRACON
Sat 06:48:52 AM 39.2833 -76.5667 218° Southwest 325 374 12,000 -556 Level Potomac TRACON
Sat 06:49:46 AM 39.2167 -76.6167 210° Southwest 305 351 11,000 -1,000 Descending Potomac TRACON
Sat 06:50:52 AM 39.1500 -76.6833 218° Southwest 291 335 10,000 -474 Descending Potomac TRACON
Sat 06:51:40 AM 39.1000 -76.7500 226° Southwest 289 333 10,100 -667 Climbing Potomac TRACON
Sat 06:52:00 AM 38.9803 -76.8663 224° Southwest  Level FlightAware
Sat 06:52:40 AM 39.0500 -76.8167 226° Southwest 287 330 8,800  Level Potomac TRACON
Sat 06:53:28 AM 39.0000 -76.8667 218° Southwest 278 320 7,600 -1,611 Descending Potomac TRACON
Sat 06:54:28 AM 38.9500 -76.9333 226° Southwest 268 308 5,900 -1,700 Descending Potomac TRACON
Sat 06:55:28 AM 38.8667 -76.9500 189° South 267 307 4,200 -950 Descending Potomac TRACON
Sat 06:56:28 AM 38.8000 -76.9500 180° South 226 260 4,000 -158 Descending Potomac TRACON
Sat 06:57:22 AM 38.7500 -76.9500 180° South 195 224 3,900 -474 Descending Potomac TRACON
Sat 06:58:22 AM 38.7167 -76.9667 201° Southwest 204 235 3,100 -700 Descending Potomac TRACON
Sat 06:59:22 AM 38.7333 -77.0167 293° West 177 204 2,500 -789 Descending Potomac TRACON
Sat 07:00:16 AM 38.7667 -77.0333 339° North 174 200 1,600 -1,000 Descending Potomac TRACON

Login

Don't have an account? Register now (free) for customized features, flight alerts, and more!